sensor_id;sensor_type;location;lat;lon;timestamp;P1;durP1;ratioP1;P2;durP2;ratioP2
5014;SDS011;2526;51.060;4.228;2022-12-18T00:00:31;43.88;;;25.30;;
5014;SDS011;2526;51.060;4.228;2022-12-18T00:02:56;44.75;;;22.38;;
5014;SDS011;2526;51.060;4.228;2022-12-18T00:05:22;36.28;;;24.55;;
5014;SDS011;2526;51.060;4.228;2022-12-18T00:07:48;45.60;;;25.88;;
5014;SDS011;2526;51.060;4.228;2022-12-18T00:10:13;42.53;;;22.55;;
5014;SDS011;2526;51.060;4.228;2022-12-18T00:12:38;46.95;;;22.25;;
5014;SDS011;2526;51.060;4.228;2022-12-18T00:15:04;35.95;;;22.27;;
5014;SDS011;2526;51.060;4.228;2022-12-18T00:17:29;43.65;;;25.83;;
5014;SDS011;2526;51.060;4.228;2022-12-18T00:19:55;48.60;;;25.88;;
5014;SDS011;2526;51.060;4.228;2022-12-18T00:22:20;44.45;;;26.50;;
5014;SDS011;2526;51.060;4.228;2022-12-18T00:24:46;51.58;;;27.42;;
5014;SDS011;2526;51.060;4.228;2022-12-18T00:27:11;50.33;;;25.77;;
5014;SDS011;2526;51.060;4.228;2022-12-18T00:29:37;45.65;;;24.58;;
5014;SDS011;2526;51.060;4.228;2022-12-18T00:32:02;50.72;;;28.88;;
5014;SDS011;2526;51.060;4.228;2022-12-18T00:34:27;45.25;;;24.60;;
5014;SDS011;2526;51.060;4.228;2022-12-18T00:36:53;45.80;;;26.33;;
5014;SDS011;2526;51.060;4.228;2022-12-18T00:39:18;52.63;;;25.00;;
5014;SDS011;2526;51.060;4.228;2022-12-18T00:41:44;47.58;;;26.83;;
5014;SDS011;2526;51.060;4.228;2022-12-18T00:44:28;40.17;;;22.75;;
5014;SDS011;2526;51.060;4.228;2022-12-18T00:46:53;58.00;;;26.15;;
5014;SDS011;2526;51.060;4.228;2022-12-18T00:49:19;43.60;;;23.38;;
5014;SDS011;2526;51.060;4.228;2022-12-18T00:51:44;39.55;;;25.75;;
5014;SDS011;2526;51.060;4.228;2022-12-18T00:54:10;41.50;;;22.02;;
5014;SDS011;2526;51.060;4.228;2022-12-18T00:56:36;45.15;;;23.40;;
5014;SDS011;2526;51.060;4.228;2022-12-18T00:59:02;46.53;;;25.83;;
5014;SDS011;2526;51.060;4.228;2022-12-18T01:01:28;56.78;;;24.35;;
5014;SDS011;2526;51.060;4.228;2022-12-18T01:03:53;41.47;;;24.13;;
5014;SDS011;2526;51.060;4.228;2022-12-18T01:06:18;50.42;;;28.00;;
5014;SDS011;2526;51.060;4.228;2022-12-18T01:08:45;34.63;;;19.90;;
5014;SDS011;2526;51.060;4.228;2022-12-18T01:11:11;32.05;;;20.08;;
5014;SDS011;2526;51.060;4.228;2022-12-18T01:13:38;47.53;;;29.48;;
5014;SDS011;2526;51.060;4.228;2022-12-18T01:16:03;39.17;;;26.42;;
5014;SDS011;2526;51.060;4.228;2022-12-18T01:18:29;48.30;;;26.73;;
5014;SDS011;2526;51.060;4.228;2022-12-18T01:20:55;44.03;;;22.65;;
5014;SDS011;2526;51.060;4.228;2022-12-18T01:23:20;37.78;;;24.45;;
5014;SDS011;2526;51.060;4.228;2022-12-18T01:25:45;33.97;;;25.42;;
5014;SDS011;2526;51.060;4.228;2022-12-18T01:28:11;46.42;;;26.50;;
5014;SDS011;2526;51.060;4.228;2022-12-18T01:30:36;61.22;;;29.52;;
5014;SDS011;2526;51.060;4.228;2022-12-18T01:33:03;48.60;;;27.90;;
5014;SDS011;2526;51.060;4.228;2022-12-18T01:35:29;52.13;;;25.23;;
5014;SDS011;2526;51.060;4.228;2022-12-18T01:37:55;47.92;;;27.98;;
5014;SDS011;2526;51.060;4.228;2022-12-18T01:40:20;38.35;;;24.58;;
5014;SDS011;2526;51.060;4.228;2022-12-18T01:42:50;67.13;;;30.23;;
5014;SDS011;2526;51.060;4.228;2022-12-18T01:50:17;52.40;;;23.55;;
5014;SDS011;2526;51.060;4.228;2022-12-18T01:52:43;49.85;;;24.33;;
5014;SDS011;2526;51.060;4.228;2022-12-18T01:55:10;45.42;;;23.80;;
5014;SDS011;2526;51.060;4.228;2022-12-18T01:57:36;63.38;;;29.63;;
5014;SDS011;2526;51.060;4.228;2022-12-18T02:00:07;43.28;;;26.98;;
5014;SDS011;2526;51.060;4.228;2022-12-18T02:02:33;51.00;;;26.17;;
5014;SDS011;2526;51.060;4.228;2022-12-18T02:04:58;50.00;;;24.23;;
5014;SDS011;2526;51.060;4.228;2022-12-18T02:10:20;44.65;;;23.52;;
5014;SDS011;2526;51.060;4.228;2022-12-18T02:13:06;53.47;;;27.90;;
5014;SDS011;2526;51.060;4.228;2022-12-18T02:15:36;55.30;;;31.58;;
5014;SDS011;2526;51.060;4.228;2022-12-18T02:18:11;44.65;;;24.55;;
5014;SDS011;2526;51.060;4.228;2022-12-18T02:21:20;50.83;;;26.15;;
5014;SDS011;2526;51.060;4.228;2022-12-18T02:26:20;48.30;;;26.73;;
5014;SDS011;2526;51.060;4.228;2022-12-18T02:28:53;49.08;;;24.73;;
5014;SDS011;2526;51.060;4.228;2022-12-18T02:31:23;44.20;;;25.30;;
5014;SDS011;2526;51.060;4.228;2022-12-18T02:33:50;56.15;;;30.10;;
5014;SDS011;2526;51.060;4.228;2022-12-18T02:36:16;46.05;;;24.48;;
5014;SDS011;2526;51.060;4.228;2022-12-18T02:38:42;47.00;;;28.00;;
5014;SDS011;2526;51.060;4.228;2022-12-18T02:41:09;46.33;;;23.63;;
5014;SDS011;2526;51.060;4.228;2022-12-18T02:43:35;46.35;;;23.27;;
5014;SDS011;2526;51.060;4.228;2022-12-18T02:46:00;36.38;;;23.38;;
5014;SDS011;2526;51.060;4.228;2022-12-18T02:48:46;53.50;;;26.52;;
5014;SDS011;2526;51.060;4.228;2022-12-18T02:51:17;42.17;;;21.70;;
5014;SDS011;2526;51.060;4.228;2022-12-18T02:53:46;47.85;;;24.15;;
5014;SDS011;2526;51.060;4.228;2022-12-18T02:56:16;44.70;;;27.45;;
5014;SDS011;2526;51.060;4.228;2022-12-18T03:01:24;40.55;;;25.75;;
5014;SDS011;2526;51.060;4.228;2022-12-18T03:04:00;51.13;;;22.90;;
5014;SDS011;2526;51.060;4.228;2022-12-18T03:06:32;42.47;;;24.40;;
5014;SDS011;2526;51.060;4.228;2022-12-18T03:08:58;47.85;;;25.27;;
5014;SDS011;2526;51.060;4.228;2022-12-18T03:11:25;41.28;;;23.70;;
5014;SDS011;2526;51.060;4.228;2022-12-18T03:14:10;37.92;;;20.27;;
5014;SDS011;2526;51.060;4.228;2022-12-18T03:16:38;54.88;;;26.75;;
5014;SDS011;2526;51.060;4.228;2022-12-18T03:19:05;42.75;;;22.42;;
5014;SDS011;2526;51.060;4.228;2022-12-18T03:21:33;42.33;;;24.95;;
5014;SDS011;2526;51.060;4.228;2022-12-18T03:24:00;44.28;;;23.55;;
5014;SDS011;2526;51.060;4.228;2022-12-18T03:26:28;55.28;;;28.13;;
5014;SDS011;2526;51.060;4.228;2022-12-18T03:28:59;59.42;;;23.13;;
5014;SDS011;2526;51.060;4.228;2022-12-18T03:31:25;42.28;;;22.38;;
5014;SDS011;2526;51.060;4.228;2022-12-18T03:33:57;41.78;;;23.02;;
5014;SDS011;2526;51.060;4.228;2022-12-18T03:36:23;41.22;;;21.55;;
5014;SDS011;2526;51.060;4.228;2022-12-18T03:38:49;42.00;;;22.90;;
5014;SDS011;2526;51.060;4.228;2022-12-18T03:41:19;42.30;;;22.45;;
5014;SDS011;2526;51.060;4.228;2022-12-18T03:44:10;46.45;;;20.33;;
5014;SDS011;2526;51.060;4.228;2022-12-18T03:46:33;37.28;;;22.77;;
5014;SDS011;2526;51.060;4.228;2022-12-18T03:49:11;44.75;;;23.92;;
5014;SDS011;2526;51.060;4.228;2022-12-18T03:54:22;53.05;;;23.70;;
5014;SDS011;2526;51.060;4.228;2022-12-18T03:56:50;46.20;;;25.60;;
5014;SDS011;2526;51.060;4.228;2022-12-18T03:59:18;47.80;;;24.42;;
5014;SDS011;2526;51.060;4.228;2022-12-18T04:01:47;42.55;;;24.05;;
5014;SDS011;2526;51.060;4.228;2022-12-18T04:04:13;40.53;;;24.48;;
5014;SDS011;2526;51.060;4.228;2022-12-18T04:06:39;50.88;;;26.15;;
5014;SDS011;2526;51.060;4.228;2022-12-18T04:09:05;33.92;;;22.23;;
5014;SDS011;2526;51.060;4.228;2022-12-18T04:11:31;51.13;;;24.50;;
5014;SDS011;2526;51.060;4.228;2022-12-18T04:13:57;43.95;;;21.55;;
5014;SDS011;2526;51.060;4.228;2022-12-18T04:16:23;44.15;;;20.77;;
5014;SDS011;2526;51.060;4.228;2022-12-18T04:18:48;41.20;;;21.90;;
5014;SDS011;2526;51.060;4.228;2022-12-18T04:21:14;54.92;;;25.25;;
5014;SDS011;2526;51.060;4.228;2022-12-18T04:23:39;38.95;;;21.48;;
5014;SDS011;2526;51.060;4.228;2022-12-18T04:26:05;37.83;;;22.65;;
5014;SDS011;2526;51.060;4.228;2022-12-18T04:28:30;36.15;;;20.73;;
5014;SDS011;2526;51.060;4.228;2022-12-18T04:30:56;53.13;;;22.80;;
5014;SDS011;2526;51.060;4.228;2022-12-18T04:33:21;43.33;;;22.70;;
5014;SDS011;2526;51.060;4.228;2022-12-18T04:35:46;40.15;;;19.35;;
5014;SDS011;2526;51.060;4.228;2022-12-18T04:38:12;32.50;;;20.55;;
5014;SDS011;2526;51.060;4.228;2022-12-18T04:40:38;59.13;;;23.70;;
5014;SDS011;2526;51.060;4.228;2022-12-18T04:43:03;45.35;;;22.17;;
5014;SDS011;2526;51.060;4.228;2022-12-18T04:45:29;43.83;;;23.02;;
5014;SDS011;2526;51.060;4.228;2022-12-18T04:47:56;53.33;;;18.52;;
5014;SDS011;2526;51.060;4.228;2022-12-18T04:50:22;41.15;;;22.10;;
5014;SDS011;2526;51.060;4.228;2022-12-18T04:52:47;49.60;;;23.17;;
5014;SDS011;2526;51.060;4.228;2022-12-18T04:55:12;39.72;;;22.95;;
5014;SDS011;2526;51.060;4.228;2022-12-18T04:57:38;42.58;;;21.92;;
5014;SDS011;2526;51.060;4.228;2022-12-18T05:00:03;43.47;;;25.73;;
5014;SDS011;2526;51.060;4.228;2022-12-18T05:02:31;39.60;;;20.13;;
5014;SDS011;2526;51.060;4.228;2022-12-18T05:04:56;36.72;;;20.40;;
5014;SDS011;2526;51.060;4.228;2022-12-18T05:07:22;38.55;;;20.48;;
5014;SDS011;2526;51.060;4.228;2022-12-18T05:09:47;44.45;;;23.35;;
5014;SDS011;2526;51.060;4.228;2022-12-18T05:12:13;43.30;;;22.15;;
5014;SDS011;2526;51.060;4.228;2022-12-18T05:14:38;42.05;;;21.88;;
5014;SDS011;2526;51.060;4.228;2022-12-18T05:17:03;48.33;;;21.75;;
5014;SDS011;2526;51.060;4.228;2022-12-18T05:19:29;44.90;;;23.02;;
5014;SDS011;2526;51.060;4.228;2022-12-18T05:21:54;41.03;;;23.90;;
5014;SDS011;2526;51.060;4.228;2022-12-18T05:24:20;45.03;;;20.13;;
5014;SDS011;2526;51.060;4.228;2022-12-18T05:26:45;50.85;;;24.13;;
5014;SDS011;2526;51.060;4.228;2022-12-18T05:29:11;46.28;;;22.40;;
5014;SDS011;2526;51.060;4.228;2022-12-18T05:31:37;35.92;;;19.92;;
5014;SDS011;2526;51.060;4.228;2022-12-18T05:34:03;36.53;;;19.52;;
5014;SDS011;2526;51.060;4.228;2022-12-18T05:36:28;38.53;;;19.58;;
5014;SDS011;2526;51.060;4.228;2022-12-18T05:38:54;42.72;;;16.90;;
5014;SDS011;2526;51.060;4.228;2022-12-18T05:41:19;30.73;;;18.73;;
5014;SDS011;2526;51.060;4.228;2022-12-18T05:43:45;32.05;;;18.55;;
5014;SDS011;2526;51.060;4.228;2022-12-18T05:46:15;36.03;;;18.23;;
5014;SDS011;2526;51.060;4.228;2022-12-18T05:48:41;46.00;;;20.80;;
5014;SDS011;2526;51.060;4.228;2022-12-18T05:51:08;30.85;;;22.48;;
5014;SDS011;2526;51.060;4.228;2022-12-18T05:53:33;38.45;;;20.42;;
5014;SDS011;2526;51.060;4.228;2022-12-18T05:56:04;25.80;;;17.27;;
5014;SDS011;2526;51.060;4.228;2022-12-18T05:58:30;33.72;;;19.10;;
5014;SDS011;2526;51.060;4.228;2022-12-18T06:00:55;34.50;;;17.15;;
5014;SDS011;2526;51.060;4.228;2022-12-18T06:03:21;39.55;;;19.08;;
5014;SDS011;2526;51.060;4.228;2022-12-18T06:05:46;33.05;;;17.90;;
5014;SDS011;2526;51.060;4.228;2022-12-18T06:08:12;41.22;;;20.38;;
5014;SDS011;2526;51.060;4.228;2022-12-18T06:10:38;31.70;;;21.50;;
5014;SDS011;2526;51.060;4.228;2022-12-18T06:13:04;39.70;;;21.77;;
5014;SDS011;2526;51.060;4.228;2022-12-18T06:15:30;32.65;;;16.98;;
5014;SDS011;2526;51.060;4.228;2022-12-18T06:17:55;40.25;;;20.85;;
5014;SDS011;2526;51.060;4.228;2022-12-18T06:20:21;40.80;;;18.90;;
5014;SDS011;2526;51.060;4.228;2022-12-18T06:22:46;32.33;;;16.25;;
5014;SDS011;2526;51.060;4.228;2022-12-18T06:25:12;34.30;;;20.17;;
5014;SDS011;2526;51.060;4.228;2022-12-18T06:27:37;29.02;;;15.82;;
5014;SDS011;2526;51.060;4.228;2022-12-18T06:30:03;30.70;;;16.55;;
5014;SDS011;2526;51.060;4.228;2022-12-18T06:32:28;41.10;;;19.80;;
5014;SDS011;2526;51.060;4.228;2022-12-18T06:34:54;36.88;;;18.17;;
5014;SDS011;2526;51.060;4.228;2022-12-18T06:37:20;34.40;;;17.38;;
5014;SDS011;2526;51.060;4.228;2022-12-18T06:39:46;41.78;;;18.48;;
5014;SDS011;2526;51.060;4.228;2022-12-18T06:42:11;26.95;;;15.73;;
5014;SDS011;2526;51.060;4.228;2022-12-18T06:44:37;36.33;;;19.83;;
5014;SDS011;2526;51.060;4.228;2022-12-18T06:47:02;31.52;;;16.17;;
5014;SDS011;2526;51.060;4.228;2022-12-18T06:49:28;37.40;;;21.13;;
5014;SDS011;2526;51.060;4.228;2022-12-18T06:51:53;37.20;;;16.48;;
5014;SDS011;2526;51.060;4.228;2022-12-18T06:54:18;34.53;;;17.13;;
5014;SDS011;2526;51.060;4.228;2022-12-18T06:56:47;42.47;;;22.88;;
5014;SDS011;2526;51.060;4.228;2022-12-18T06:59:13;25.55;;;16.67;;
5014;SDS011;2526;51.060;4.228;2022-12-18T07:01:38;30.92;;;18.45;;
5014;SDS011;2526;51.060;4.228;2022-12-18T07:04:04;31.85;;;17.80;;
5014;SDS011;2526;51.060;4.228;2022-12-18T07:06:29;30.67;;;16.80;;
5014;SDS011;2526;51.060;4.228;2022-12-18T07:08:55;25.27;;;15.63;;
5014;SDS011;2526;51.060;4.228;2022-12-18T07:11:20;36.22;;;18.73;;
5014;SDS011;2526;51.060;4.228;2022-12-18T07:13:46;32.58;;;17.25;;
5014;SDS011;2526;51.060;4.228;2022-12-18T07:16:18;27.88;;;13.98;;
5014;SDS011;2526;51.060;4.228;2022-12-18T07:18:44;34.00;;;18.77;;
5014;SDS011;2526;51.060;4.228;2022-12-18T07:21:10;28.15;;;15.20;;
5014;SDS011;2526;51.060;4.228;2022-12-18T07:23:36;32.47;;;18.42;;
5014;SDS011;2526;51.060;4.228;2022-12-18T07:26:03;27.85;;;17.33;;
5014;SDS011;2526;51.060;4.228;2022-12-18T07:28:29;30.70;;;16.90;;
5014;SDS011;2526;51.060;4.228;2022-12-18T07:30:54;38.03;;;15.27;;
5014;SDS011;2526;51.060;4.228;2022-12-18T07:33:20;35.47;;;17.10;;
5014;SDS011;2526;51.060;4.228;2022-12-18T07:35:45;31.00;;;16.95;;
5014;SDS011;2526;51.060;4.228;2022-12-18T07:38:11;29.02;;;17.27;;
5014;SDS011;2526;51.060;4.228;2022-12-18T07:40:36;35.95;;;17.08;;
5014;SDS011;2526;51.060;4.228;2022-12-18T07:43:02;24.08;;;15.52;;
5014;SDS011;2526;51.060;4.228;2022-12-18T07:45:27;27.92;;;14.55;;
5014;SDS011;2526;51.060;4.228;2022-12-18T07:47:55;35.63;;;16.20;;
5014;SDS011;2526;51.060;4.228;2022-12-18T07:50:21;30.02;;;18.23;;
5014;SDS011;2526;51.060;4.228;2022-12-18T07:52:46;29.92;;;16.08;;
5014;SDS011;2526;51.060;4.228;2022-12-18T07:55:12;27.00;;;14.77;;
5014;SDS011;2526;51.060;4.228;2022-12-18T07:57:37;26.45;;;15.10;;
5014;SDS011;2526;51.060;4.228;2022-12-18T08:00:03;25.75;;;15.25;;
5014;SDS011;2526;51.060;4.228;2022-12-18T08:02:30;29.85;;;15.32;;
5014;SDS011;2526;51.060;4.228;2022-12-18T08:04:55;22.80;;;13.95;;
5014;SDS011;2526;51.060;4.228;2022-12-18T08:07:21;27.10;;;14.43;;
5014;SDS011;2526;51.060;4.228;2022-12-18T08:09:46;34.58;;;16.95;;
5014;SDS011;2526;51.060;4.228;2022-12-18T08:12:12;27.10;;;15.25;;
5014;SDS011;2526;51.060;4.228;2022-12-18T08:14:37;21.90;;;14.15;;
5014;SDS011;2526;51.060;4.228;2022-12-18T08:17:02;26.15;;;14.88;;
5014;SDS011;2526;51.060;4.228;2022-12-18T08:19:28;24.13;;;14.52;;
5014;SDS011;2526;51.060;4.228;2022-12-18T08:21:53;33.72;;;17.60;;
5014;SDS011;2526;51.060;4.228;2022-12-18T08:24:19;26.30;;;14.57;;
5014;SDS011;2526;51.060;4.228;2022-12-18T08:26:44;24.92;;;13.07;;
5014;SDS011;2526;51.060;4.228;2022-12-18T08:29:10;32.60;;;16.63;;
5014;SDS011;2526;51.060;4.228;2022-12-18T08:31:35;31.90;;;14.68;;
5014;SDS011;2526;51.060;4.228;2022-12-18T08:34:01;25.25;;;13.95;;
5014;SDS011;2526;51.060;4.228;2022-12-18T08:36:26;21.77;;;12.20;;
5014;SDS011;2526;51.060;4.228;2022-12-18T08:38:52;23.73;;;16.15;;
5014;SDS011;2526;51.060;4.228;2022-12-18T08:41:18;31.63;;;12.00;;
5014;SDS011;2526;51.060;4.228;2022-12-18T08:43:43;25.92;;;14.15;;
5014;SDS011;2526;51.060;4.228;2022-12-18T08:46:31;30.95;;;13.77;;
5014;SDS011;2526;51.060;4.228;2022-12-18T08:48:57;23.92;;;16.50;;
5014;SDS011;2526;51.060;4.228;2022-12-18T08:51:23;19.52;;;10.98;;
5014;SDS011;2526;51.060;4.228;2022-12-18T08:53:48;25.95;;;13.43;;
5014;SDS011;2526;51.060;4.228;2022-12-18T08:56:14;30.35;;;14.88;;
5014;SDS011;2526;51.060;4.228;2022-12-18T08:58:40;29.08;;;15.35;;
5014;SDS011;2526;51.060;4.228;2022-12-18T09:01:07;29.63;;;14.55;;
5014;SDS011;2526;51.060;4.228;2022-12-18T09:03:32;23.67;;;15.13;;
5014;SDS011;2526;51.060;4.228;2022-12-18T09:05:58;22.15;;;13.60;;
5014;SDS011;2526;51.060;4.228;2022-12-18T09:08:25;20.75;;;13.98;;
5014;SDS011;2526;51.060;4.228;2022-12-18T09:10:50;21.83;;;11.40;;
5014;SDS011;2526;51.060;4.228;2022-12-18T09:13:16;26.33;;;12.40;;
5014;SDS011;2526;51.060;4.228;2022-12-18T09:15:42;20.40;;;12.98;;
5014;SDS011;2526;51.060;4.228;2022-12-18T09:18:08;24.88;;;13.95;;
5014;SDS011;2526;51.060;4.228;2022-12-18T09:20:34;26.90;;;15.23;;
5014;SDS011;2526;51.060;4.228;2022-12-18T09:23:00;21.38;;;12.60;;
5014;SDS011;2526;51.060;4.228;2022-12-18T09:25:25;21.55;;;11.80;;
5014;SDS011;2526;51.060;4.228;2022-12-18T09:27:52;23.60;;;10.52;;
5014;SDS011;2526;51.060;4.228;2022-12-18T09:30:18;19.52;;;11.70;;
5014;SDS011;2526;51.060;4.228;2022-12-18T09:32:43;27.00;;;12.98;;
5014;SDS011;2526;51.060;4.228;2022-12-18T09:35:09;18.73;;;11.52;;
5014;SDS011;2526;51.060;4.228;2022-12-18T09:37:34;22.23;;;11.80;;
5014;SDS011;2526;51.060;4.228;2022-12-18T09:39:59;20.13;;;13.48;;
5014;SDS011;2526;51.060;4.228;2022-12-18T09:42:25;38.13;;;15.30;;
5014;SDS011;2526;51.060;4.228;2022-12-18T09:44:52;20.33;;;10.55;;
5014;SDS011;2526;51.060;4.228;2022-12-18T09:47:19;26.08;;;13.30;;
5014;SDS011;2526;51.060;4.228;2022-12-18T09:49:49;20.35;;;11.70;;
5014;SDS011;2526;51.060;4.228;2022-12-18T09:54:41;20.55;;;12.48;;
5014;SDS011;2526;51.060;4.228;2022-12-18T09:57:15;24.30;;;14.52;;
5014;SDS011;2526;51.060;4.228;2022-12-18T09:59:44;18.58;;;11.30;;
5014;SDS011;2526;51.060;4.228;2022-12-18T10:04:42;23.15;;;14.13;;
5014;SDS011;2526;51.060;4.228;2022-12-18T10:07:16;19.38;;;9.68;;
5014;SDS011;2526;51.060;4.228;2022-12-18T10:12:24;18.77;;;12.18;;
5014;SDS011;2526;51.060;4.228;2022-12-18T10:15:06;15.38;;;9.40;;
5014;SDS011;2526;51.060;4.228;2022-12-18T10:17:39;20.90;;;10.95;;
5014;SDS011;2526;51.060;4.228;2022-12-18T10:20:13;14.07;;;8.32;;
5014;SDS011;2526;51.060;4.228;2022-12-18T10:22:57;22.65;;;11.05;;
5014;SDS011;2526;51.060;4.228;2022-12-18T10:25:27;17.42;;;9.52;;
5014;SDS011;2526;51.060;4.228;2022-12-18T10:27:57;14.38;;;8.65;;
5014;SDS011;2526;51.060;4.228;2022-12-18T10:30:25;14.60;;;11.70;;
5014;SDS011;2526;51.060;4.228;2022-12-18T10:32:51;17.65;;;10.18;;
5014;SDS011;2526;51.060;4.228;2022-12-18T10:35:21;24.23;;;11.40;;
5014;SDS011;2526;51.060;4.228;2022-12-18T10:37:59;16.55;;;8.02;;
5014;SDS011;2526;51.060;4.228;2022-12-18T10:40:26;13.55;;;9.65;;
5014;SDS011;2526;51.060;4.228;2022-12-18T10:43:04;17.70;;;8.00;;
5014;SDS011;2526;51.060;4.228;2022-12-18T10:45:31;19.88;;;11.00;;
5014;SDS011;2526;51.060;4.228;2022-12-18T10:47:56;14.05;;;8.85;;
5014;SDS011;2526;51.060;4.228;2022-12-18T10:52:55;16.30;;;9.98;;
5014;SDS011;2526;51.060;4.228;2022-12-18T10:55:22;18.05;;;11.07;;
5014;SDS011;2526;51.060;4.228;2022-12-18T10:57:48;21.98;;;11.35;;
5014;SDS011;2526;51.060;4.228;2022-12-18T11:00:21;18.05;;;9.93;;
5014;SDS011;2526;51.060;4.228;2022-12-18T11:02:47;17.20;;;11.10;;
5014;SDS011;2526;51.060;4.228;2022-12-18T11:05:23;16.20;;;8.95;;
5014;SDS011;2526;51.060;4.228;2022-12-18T11:07:50;17.20;;;10.15;;
5014;SDS011;2526;51.060;4.228;2022-12-18T11:10:19;20.90;;;10.30;;
5014;SDS011;2526;51.060;4.228;2022-12-18T11:12:45;17.83;;;9.77;;
5014;SDS011;2526;51.060;4.228;2022-12-18T11:15:19;20.80;;;11.98;;
5014;SDS011;2526;51.060;4.228;2022-12-18T11:17:45;19.20;;;11.32;;
5014;SDS011;2526;51.060;4.228;2022-12-18T11:23:15;15.05;;;9.65;;
5014;SDS011;2526;51.060;4.228;2022-12-18T11:25:41;18.95;;;10.30;;
5014;SDS011;2526;51.060;4.228;2022-12-18T11:30:50;17.80;;;10.70;;
5014;SDS011;2526;51.060;4.228;2022-12-18T11:33:33;18.77;;;10.93;;
5014;SDS011;2526;51.060;4.228;2022-12-18T11:36:00;17.10;;;10.65;;
5014;SDS011;2526;51.060;4.228;2022-12-18T11:38:30;16.75;;;10.25;;
5014;SDS011;2526;51.060;4.228;2022-12-18T11:40:58;21.25;;;10.25;;
5014;SDS011;2526;51.060;4.228;2022-12-18T11:46:13;18.33;;;10.70;;
5014;SDS011;2526;51.060;4.228;2022-12-18T11:48:42;13.98;;;9.60;;
5014;SDS011;2526;51.060;4.228;2022-12-18T11:51:18;23.23;;;11.80;;
5014;SDS011;2526;51.060;4.228;2022-12-18T11:53:45;23.38;;;10.27;;
5014;SDS011;2526;51.060;4.228;2022-12-18T12:11:42;16.98;;;10.70;;
5014;SDS011;2526;51.060;4.228;2022-12-18T12:14:27;15.80;;;10.35;;
5014;SDS011;2526;51.060;4.228;2022-12-18T12:22:02;16.60;;;9.35;;
5014;SDS011;2526;51.060;4.228;2022-12-18T12:27:10;18.63;;;11.07;;
5014;SDS011;2526;51.060;4.228;2022-12-18T12:29:46;19.40;;;11.20;;
5014;SDS011;2526;51.060;4.228;2022-12-18T12:40:10;19.40;;;10.70;;
5014;SDS011;2526;51.060;4.228;2022-12-18T12:42:57;14.25;;;9.65;;
5014;SDS011;2526;51.060;4.228;2022-12-18T12:48:05;17.23;;;10.63;;
5014;SDS011;2526;51.060;4.228;2022-12-18T12:50:33;21.70;;;10.55;;
5014;SDS011;2526;51.060;4.228;2022-12-18T12:52:59;12.02;;;8.73;;
5014;SDS011;2526;51.060;4.228;2022-12-18T12:55:26;16.92;;;10.90;;
5014;SDS011;2526;51.060;4.228;2022-12-18T13:00:18;22.90;;;11.00;;
5014;SDS011;2526;51.060;4.228;2022-12-18T13:18:04;18.27;;;9.02;;
5014;SDS011;2526;51.060;4.228;2022-12-18T13:28:14;16.42;;;8.32;;
5014;SDS011;2526;51.060;4.228;2022-12-18T13:30:41;15.27;;;9.55;;
5014;SDS011;2526;51.060;4.228;2022-12-18T13:35:40;18.05;;;12.70;;
5014;SDS011;2526;51.060;4.228;2022-12-18T13:45:45;14.35;;;9.60;;
5014;SDS011;2526;51.060;4.228;2022-12-18T13:48:21;20.27;;;12.25;;
5014;SDS011;2526;51.060;4.228;2022-12-18T13:50:57;17.90;;;11.32;;
5014;SDS011;2526;51.060;4.228;2022-12-18T13:53:46;17.85;;;13.88;;
5014;SDS011;2526;51.060;4.228;2022-12-18T13:56:14;17.92;;;11.18;;
5014;SDS011;2526;51.060;4.228;2022-12-18T13:58:40;18.25;;;11.20;;
5014;SDS011;2526;51.060;4.228;2022-12-18T14:01:13;16.42;;;11.07;;
5014;SDS011;2526;51.060;4.228;2022-12-18T14:03:41;21.20;;;11.43;;
5014;SDS011;2526;51.060;4.228;2022-12-18T14:06:06;19.33;;;10.38;;
5014;SDS011;2526;51.060;4.228;2022-12-18T14:08:36;18.83;;;12.23;;
5014;SDS011;2526;51.060;4.228;2022-12-18T14:11:03;24.02;;;14.20;;
5014;SDS011;2526;51.060;4.228;2022-12-18T14:13:30;16.95;;;11.43;;
5014;SDS011;2526;51.060;4.228;2022-12-18T14:15:56;14.48;;;11.25;;
5014;SDS011;2526;51.060;4.228;2022-12-18T14:21:00;18.77;;;12.20;;
5014;SDS011;2526;51.060;4.228;2022-12-18T14:23:32;19.90;;;13.98;;
5014;SDS011;2526;51.060;4.228;2022-12-18T14:25:58;29.67;;;15.68;;
5014;SDS011;2526;51.060;4.228;2022-12-18T14:28:23;20.30;;;15.00;;
5014;SDS011;2526;51.060;4.228;2022-12-18T14:30:50;20.38;;;13.55;;
5014;SDS011;2526;51.060;4.228;2022-12-18T14:33:17;23.42;;;13.98;;
5014;SDS011;2526;51.060;4.228;2022-12-18T14:36:05;23.15;;;12.25;;
5014;SDS011;2526;51.060;4.228;2022-12-18T14:38:39;26.58;;;14.38;;
5014;SDS011;2526;51.060;4.228;2022-12-18T14:41:06;19.08;;;12.23;;
5014;SDS011;2526;51.060;4.228;2022-12-18T14:43:32;175.65;;;107.07;;
5014;SDS011;2526;51.060;4.228;2022-12-18T14:45:58;126.97;;;77.85;;
5014;SDS011;2526;51.060;4.228;2022-12-18T14:48:30;38.80;;;25.30;;
5014;SDS011;2526;51.060;4.228;2022-12-18T14:51:13;29.73;;;17.88;;
5014;SDS011;2526;51.060;4.228;2022-12-18T14:53:40;28.02;;;16.90;;
5014;SDS011;2526;51.060;4.228;2022-12-18T14:56:21;21.70;;;15.98;;
5014;SDS011;2526;51.060;4.228;2022-12-18T14:59:32;30.90;;;20.00;;
5014;SDS011;2526;51.060;4.228;2022-12-18T15:01:33;27.77;;;16.98;;
5014;SDS011;2526;51.060;4.228;2022-12-18T15:04:00;23.38;;;19.52;;
5014;SDS011;2526;51.060;4.228;2022-12-18T15:06:27;35.33;;;19.73;;
5014;SDS011;2526;51.060;4.228;2022-12-18T15:08:53;38.78;;;24.20;;
5014;SDS011;2526;51.060;4.228;2022-12-18T15:11:32;42.63;;;32.35;;
5014;SDS011;2526;51.060;4.228;2022-12-18T15:14:00;39.63;;;24.77;;
5014;SDS011;2526;51.060;4.228;2022-12-18T15:16:25;40.17;;;24.75;;
5014;SDS011;2526;51.060;4.228;2022-12-18T15:18:51;39.92;;;23.02;;
5014;SDS011;2526;51.060;4.228;2022-12-18T15:21:18;43.85;;;23.83;;
5014;SDS011;2526;51.060;4.228;2022-12-18T15:26:10;36.65;;;22.98;;
5014;SDS011;2526;51.060;4.228;2022-12-18T15:28:51;27.80;;;16.00;;
5014;SDS011;2526;51.060;4.228;2022-12-18T15:36:23;54.80;;;36.58;;
5014;SDS011;2526;51.060;4.228;2022-12-18T15:38:49;52.20;;;30.90;;
5014;SDS011;2526;51.060;4.228;2022-12-18T15:41:15;45.33;;;30.42;;
5014;SDS011;2526;51.060;4.228;2022-12-18T15:43:41;34.90;;;21.88;;
5014;SDS011;2526;51.060;4.228;2022-12-18T15:46:09;33.60;;;20.98;;
5014;SDS011;2526;51.060;4.228;2022-12-18T15:48:40;30.60;;;21.10;;
5014;SDS011;2526;51.060;4.228;2022-12-18T15:53:47;29.10;;;17.15;;
5014;SDS011;2526;51.060;4.228;2022-12-18T15:56:14;27.77;;;16.52;;
5014;SDS011;2526;51.060;4.228;2022-12-18T15:58:59;24.13;;;15.68;;
5014;SDS011;2526;51.060;4.228;2022-12-18T16:01:25;33.92;;;18.70;;
5014;SDS011;2526;51.060;4.228;2022-12-18T16:03:51;25.85;;;17.23;;
5014;SDS011;2526;51.060;4.228;2022-12-18T16:06:17;25.40;;;15.32;;
5014;SDS011;2526;51.060;4.228;2022-12-18T16:08:42;29.00;;;17.95;;
5014;SDS011;2526;51.060;4.228;2022-12-18T16:11:14;29.15;;;16.55;;
5014;SDS011;2526;51.060;4.228;2022-12-18T16:13:44;26.90;;;18.35;;
5014;SDS011;2526;51.060;4.228;2022-12-18T16:16:10;36.35;;;20.80;;
5014;SDS011;2526;51.060;4.228;2022-12-18T16:18:35;35.53;;;17.67;;
5014;SDS011;2526;51.060;4.228;2022-12-18T16:21:00;27.50;;;18.52;;
5014;SDS011;2526;51.060;4.228;2022-12-18T16:23:26;37.78;;;21.05;;
5014;SDS011;2526;51.060;4.228;2022-12-18T16:25:52;28.83;;;19.25;;
5014;SDS011;2526;51.060;4.228;2022-12-18T16:28:23;36.30;;;21.85;;
5014;SDS011;2526;51.060;4.228;2022-12-18T16:30:49;37.90;;;22.13;;
5014;SDS011;2526;51.060;4.228;2022-12-18T16:33:14;29.23;;;18.67;;
5014;SDS011;2526;51.060;4.228;2022-12-18T16:35:40;38.75;;;21.60;;
5014;SDS011;2526;51.060;4.228;2022-12-18T16:38:05;34.50;;;21.42;;
5014;SDS011;2526;51.060;4.228;2022-12-18T16:40:31;31.42;;;19.10;;
5014;SDS011;2526;51.060;4.228;2022-12-18T16:42:57;30.52;;;17.73;;
5014;SDS011;2526;51.060;4.228;2022-12-18T16:45:22;30.30;;;16.30;;
5014;SDS011;2526;51.060;4.228;2022-12-18T16:47:48;38.60;;;22.77;;